Time;durP1;ratioP1;P1;durP2;ratioP2;P2;SDS_P1;SDS_P2;PMS_P1;PMS_P2;Temp;Humidity;BMP_temperature;BMP_pressure;BME280_temperature;BME280_humidity;BME280_pressure;Samples;Min_cycle;Max_cycle;Signal;HPM_P1;HPM_P2
2022/12/06 00:01:28;;;;;;;5.97;3.03;;;22.10;45.70;;;20.47;50.80;96034.59;4961386;28;20521;-59
2022/12/06 00:03:56;;;;;;;6.90;3.00;;;22.10;45.50;;;20.46;50.84;96035.66;4945409;28;20096;-59
2022/12/06 00:06:24;;;;;;;5.38;2.30;;;22.10;45.60;;;20.45;50.40;96029.50;4919562;28;20472;-59
2022/12/06 00:08:50;;;;;;;4.72;2.53;;;22.10;45.60;;;20.44;50.84;96024.41;4954675;28;20152;-59
2022/12/06 00:11:17;;;;;;;6.28;2.95;;;22.10;45.60;;;20.45;50.53;96031.38;4957587;28;20026;-59
2022/12/06 00:13:43;;;;;;;4.25;2.42;;;22.10;45.60;;;20.44;49.11;96027.09;4958222;28;20042;-59
2022/12/06 00:16:12;;;;;;;5.78;2.38;;;22.00;45.70;;;20.43;50.04;96028.16;4957386;28;20068;-59
2022/12/06 00:18:39;;;;;;;5.70;2.88;;;22.10;45.70;;;20.42;50.35;96035.38;4957896;28;20038;-59
2022/12/06 00:21:10;;;;;;;3.53;2.45;;;22.10;45.60;;;20.44;50.80;96040.44;4941081;28;20042;-60
2022/12/06 00:23:47;;;;;;;4.38;2.60;;;22.10;45.50;;;20.44;50.84;96043.13;4928303;28;20049;-59
2022/12/06 00:26:13;;;;;;;4.57;2.35;;;22.10;45.50;;;20.42;50.38;96045.25;4940149;28;20064;-59
2022/12/06 00:28:40;;;;;;;4.28;2.63;;;22.10;45.70;;;20.42;50.60;96045.25;4942024;28;20026;-60
2022/12/06 00:31:09;;;;;;;5.43;2.53;;;22.00;45.70;;;20.40;50.97;96047.34;4924488;28;20120;-59
2022/12/06 00:33:35;;;;;;;4.75;2.58;;;22.10;45.50;;;20.40;51.38;96052.69;4924508;28;20056;-59
2022/12/06 00:36:07;;;;;;;5.10;2.67;;;22.10;45.60;;;20.39;51.65;96046.53;4940906;28;20068;-59
2022/12/06 00:38:33;;;;;;;4.07;2.15;;;22.10;45.40;;;20.39;51.56;96043.03;4942528;28;20041;-59
2022/12/06 00:41:16;;;;;;;5.00;2.30;;;22.10;45.50;;;20.40;51.17;96042.00;4955592;28;20037;-59
2022/12/06 00:43:43;;;;;;;4.78;2.50;;;22.10;45.50;;;20.38;51.24;96036.91;4961899;28;20069;-59
2022/12/06 00:46:12;;;;;;;4.15;2.17;;;22.00;45.70;;;20.37;51.01;96032.63;4927989;28;20560;-59
2022/12/06 00:48:38;;;;;;;4.72;2.47;;;22.00;45.70;;;20.39;50.79;96035.84;4959137;28;20129;-59
2022/12/06 00:51:04;;;;;;;3.28;2.17;;;22.10;45.70;;;20.38;50.98;96018.19;4962419;28;20107;-59
2022/12/06 00:53:30;;;;;;;7.22;2.42;;;22.00;45.70;;;20.38;50.66;96023.53;4934694;28;20037;-59
2022/12/06 00:55:56;;;;;;;3.70;2.05;;;22.00;45.80;;;20.38;50.56;96017.38;4960707;28;20033;-59
2022/12/06 00:58:22;;;;;;;3.95;2.25;;;22.00;45.60;;;20.38;50.86;96022.72;4962577;28;20721;-59
2022/12/06 01:00:48;;;;;;;3.83;2.03;;;22.00;45.60;;;20.38;51.57;96017.38;4960528;28;20041;-59
2022/12/06 01:03:14;;;;;;;4.15;2.33;;;22.00;45.70;;;20.38;50.69;96022.72;4944491;28;20050;-59
2022/12/06 01:05:42;;;;;;;4.78;2.42;;;22.10;45.70;;;20.37;51.86;96018.44;4960119;28;20573;-59
2022/12/06 01:08:08;;;;;;;3.58;2.40;;;22.10;45.70;;;20.36;50.92;96009.59;4962376;28;20034;-59
2022/12/06 01:10:34;;;;;;;5.63;2.60;;;22.00;45.80;;;20.37;51.29;96007.75;4965744;28;20057;-59
2022/12/06 01:13:00;;;;;;;3.88;2.30;;;22.00;45.80;;;20.36;50.83;96008.78;4963025;28;20025;-59
2022/12/06 01:15:26;;;;;;;3.63;2.13;;;22.00;45.80;;;20.38;51.37;96009.38;4963699;28;20405;-59
2022/12/06 01:17:52;;;;;;;4.45;2.45;;;22.00;45.80;;;20.36;51.47;96003.44;4963861;28;20355;-59
2022/12/06 01:20:18;;;;;;;3.85;2.35;;;22.00;45.70;;;20.37;50.18;96013.09;4966700;28;20042;-59
2022/12/06 01:22:44;;;;;;;4.22;2.20;;;22.10;45.70;;;20.36;50.47;96014.94;4930013;28;20052;-60
2022/12/06 01:25:10;;;;;;;4.03;2.10;;;22.00;45.80;;;20.37;51.05;96010.44;4930684;28;20067;-59
2022/12/06 01:27:36;;;;;;;4.82;2.25;;;22.00;45.80;;;20.36;51.25;96014.13;4929158;28;20034;-59
2022/12/06 01:30:04;;;;;;;4.38;2.03;;;22.10;45.70;;;20.36;51.68;96006.13;4946751;28;20034;-60
2022/12/06 01:32:30;;;;;;;3.85;2.15;;;22.00;45.70;;;20.36;51.00;96003.44;4963517;28;20155;-59
2022/12/06 01:34:56;;;;;;;4.65;2.45;;;22.00;45.80;;;20.35;51.68;96008.00;4964694;28;20354;-59
2022/12/06 01:37:22;;;;;;;3.20;1.88;;;22.00;45.90;;;20.34;52.00;95995.69;4963735;28;20315;-59
2022/12/06 01:39:48;;;;;;;4.13;2.17;;;22.00;45.70;;;20.34;50.83;96000.22;4965010;28;20262;-59
2022/12/06 01:42:14;;;;;;;5.43;2.65;;;22.10;45.70;;;20.35;50.55;95999.16;4972099;28;20315;-59
2022/12/06 01:44:44;;;;;;;3.25;2.13;;;22.10;45.80;;;20.35;50.59;95997.31;4962444;28;20033;-59
2022/12/06 01:47:29;;;;;;;3.85;2.17;;;22.00;45.80;;;20.34;51.74;95993.03;4966340;28;20045;-59
2022/12/06 01:50:06;;;;;;;3.70;2.28;;;22.00;45.90;;;20.33;51.32;95999.44;4949484;28;20070;-59
2022/12/06 01:52:43;;;;;;;5.00;2.10;;;22.00;45.80;;;20.33;50.83;95987.94;4947480;28;20042;-59
2022/12/06 01:55:09;;;;;;;3.58;2.10;;;22.00;45.80;;;20.32;51.24;95991.66;4963828;28;20168;-59
2022/12/06 01:57:35;;;;;;;2.85;1.98;;;22.00;45.80;;;20.30;50.55;95997.25;4947236;28;20347;-59
2022/12/06 02:00:01;;;;;;;3.42;2.10;;;22.00;45.80;;;20.32;50.83;95991.66;4946845;28;20383;-59
2022/12/06 02:02:27;;;;;;;4.43;2.38;;;22.00;45.80;;;20.29;49.64;95989.50;4930817;28;20148;-59
2022/12/06 02:04:53;;;;;;;4.80;2.40;;;22.00;45.80;;;20.30;50.77;95991.91;4929593;28;20393;-59
2022/12/06 02:07:20;;;;;;;2.90;1.67;;;21.90;45.90;;;20.28;50.13;95985.22;4962715;28;20355;-59
2022/12/06 02:09:46;;;;;;;3.30;2.13;;;21.90;45.90;;;20.29;50.03;95984.16;4962945;28;20064;-59
2022/12/06 02:12:15;;;;;;;3.55;2.15;;;21.90;45.90;;;20.29;51.17;95992.16;4962761;28;20355;-59
2022/12/06 02:14:42;;;;;;;3.25;2.10;;;21.90;45.80;;;20.29;50.28;95984.16;4945572;28;20033;-59
2022/12/06 02:17:32;;;;;;;4.18;2.13;;;21.90;45.70;;;20.29;50.79;95992.16;4946426;28;20148;-59
2022/12/06 02:20:29;;;;;;;5.00;2.83;;;21.90;45.80;;;20.29;50.98;95978.81;4963131;28;20076;-59
2022/12/06 02:23:28;;;;;;;4.93;2.30;;;21.80;45.90;;;20.28;51.31;95979.88;4945287;28;20048;-60
2022/12/06 02:26:23;;;;;;;4.95;2.30;;;21.90;45.80;;;20.27;51.94;95967.59;4946780;28;20041;-59
2022/12/06 02:29:16;;;;;;;3.90;2.15;;;21.90;45.80;;;20.27;51.64;95967.59;4947010;28;20061;-59
2022/12/06 02:32:07;;;;;;;4.38;1.88;;;21.90;45.80;;;20.25;51.17;95962.50;4965637;28;20163;-59
2022/12/06 02:34:47;;;;;;;2.90;2.20;;;21.80;46.00;;;20.24;51.33;95952.06;4949161;28;20064;-59
2022/12/06 02:37:30;;;;;;;3.78;1.85;;;21.80;46.00;;;20.24;51.85;95962.75;4943138;28;20107;-60
2022/12/06 02:40:08;;;;;;;3.33;2.05;;;21.90;46.00;;;20.25;51.84;95969.69;4926747;28;20073;-58
2022/12/06 02:42:51;;;;;;;3.63;2.55;;;21.80;46.00;;;20.23;50.83;95958.47;4945021;28;20069;-59
2022/12/06 02:45:20;;;;;;;3.45;2.30;;;21.80;45.90;;;20.21;50.28;95956.06;4910276;28;20084;-59
2022/12/06 02:47:46;;;;;;;3.97;2.30;;;21.80;46.00;;;20.23;50.50;95950.47;4894925;28;20030;-60
2022/12/06 02:50:18;;;;;;;3.28;1.98;;;21.80;46.00;;;20.23;50.65;95955.81;4937005;28;20029;-59
2022/12/06 02:52:47;;;;;;;4.35;2.20;;;21.80;45.80;;;20.25;50.23;95956.34;4928884;28;20540;-59
2022/12/06 02:55:13;;;;;;;5.00;2.80;;;21.80;46.00;;;20.21;49.47;95932.00;4946959;28;20045;-59
2022/12/06 02:57:45;;;;;;;3.63;2.42;;;21.80;45.90;;;20.22;50.52;95955.00;4945465;28;20289;-59
2022/12/06 03:00:37;;;;;;;3.67;1.92;;;21.80;46.00;;;20.23;51.00;95955.81;4961463;28;20583;-59
2022/12/06 03:03:41;;;;;;;2.78;1.40;;;21.90;45.90;;;20.19;51.22;95950.97;4945495;28;20045;-59
2022/12/06 03:06:22;;;;;;;3.08;2.10;;;21.90;46.00;;;20.22;52.06;95949.66;4961979;28;20060;-59
2022/12/06 03:09:09;;;;;;;2.72;1.77;;;21.90;45.80;;;20.27;51.24;95951.56;4962772;28;20556;-59
2022/12/06 03:11:47;;;;;;;2.95;2.33;;;22.00;45.70;;;20.29;51.10;95950.25;4963146;28;20056;-59
2022/12/06 03:14:22;;;;;;;3.67;1.60;;;22.00;45.70;;;20.32;51.63;95948.94;4961458;28;20094;-59
2022/12/06 03:17:04;;;;;;;3.35;2.10;;;22.00;45.70;;;20.35;52.25;95948.41;4945587;28;20042;-59
2022/12/06 03:19:30;;;;;;;2.45;1.83;;;22.00;45.70;;;20.36;50.71;95942.81;4962911;28;20037;-59
2022/12/06 03:22:13;;;;;;;4.32;1.95;;;22.00;45.80;;;20.40;51.03;95945.81;4930384;28;20041;-59
2022/12/06 03:24:39;;;;;;;3.72;1.73;;;22.00;45.70;;;20.44;50.50;95937.06;4946287;28;20026;-59
2022/12/06 03:27:16;;;;;;;3.35;1.60;;;22.00;45.70;;;20.48;51.03;95938.16;4963026;28;20037;-59
2022/12/06 03:29:50;;;;;;;2.45;1.75;;;22.10;45.70;;;20.49;51.55;95937.09;4961500;28;20540;-59
2022/12/06 03:32:17;;;;;;;3.22;1.80;;;22.10;45.70;;;20.51;50.69;95928.81;4928687;28;20030;-58
2022/12/06 03:34:46;;;;;;;3.92;1.67;;;22.10;45.60;;;20.54;51.87;95930.97;4962001;28;20111;-59
2022/12/06 03:37:14;;;;;;;4.38;1.83;;;22.10;46.00;;;20.56;51.49;95930.72;4945261;28;20552;-59
2022/12/06 03:39:46;;;;;;;3.33;1.83;;;22.10;46.40;;;20.58;51.60;95931.25;4962009;28;20633;-59
2022/12/06 03:42:12;;;;;;;3.65;1.73;;;22.10;46.00;;;20.59;51.01;95933.69;4961437;28;20033;-59
2022/12/06 03:44:38;;;;;;;4.63;1.70;;;22.10;45.90;;;20.60;51.43;95932.66;4960921;28;20648;-59
2022/12/06 03:47:11;;;;;;;3.78;1.80;;;22.10;45.80;;;20.62;51.40;95943.88;4944752;28;20179;-59
2022/12/06 03:49:59;;;;;;;2.80;1.40;;;22.20;45.80;;;20.63;52.02;95934.81;4963262;28;20059;-59
2022/12/06 03:52:27;;;;;;;3.40;2.00;;;22.10;45.80;;;20.61;51.33;95926.22;4962002;28;20118;-60
2022/12/06 03:54:52;;;;;;;2.70;1.70;;;22.10;45.80;;;20.63;50.76;95928.66;4944178;28;20052;-59
2022/12/06 03:57:18;;;;;;;2.63;1.90;;;22.20;45.80;;;20.63;50.64;95923.31;4946511;28;20382;-59
2022/12/06 03:59:45;;;;;;;4.40;1.80;;;22.20;45.80;;;20.63;50.55;95923.31;4944031;28;20368;-59
2022/12/06 04:02:11;;;;;;;4.53;1.70;;;22.20;45.80;;;20.62;51.09;95927.84;4960937;28;20322;-59
2022/12/06 04:04:37;;;;;;;2.42;1.58;;;22.20;46.00;;;20.61;50.99;95918.22;4928612;28;20037;-59
2022/12/06 04:07:02;;;;;;;4.70;1.92;;;22.20;46.00;;;20.63;50.83;95934.00;4959974;28;20355;-60
2022/12/06 04:14:57;;;;;;;3.45;1.70;;;22.20;46.20;;;20.59;51.57;95928.34;4941723;28;21429;-60
2022/12/06 04:20:08;;;;;;;3.22;1.52;;;22.20;46.80;;;20.60;51.61;95927.31;4894356;28;20344;-61
2022/12/06 04:25:19;;;;;;;3.10;2.00;;;22.20;47.60;;;20.63;52.55;95929.47;4904314;28;20355;-61
2022/12/06 04:38:43;;;;;;;4.85;1.60;;;22.20;47.30;;;20.66;52.99;95933.47;4884939;28;20470;-60
2022/12/06 04:43:57;;;;;;;8.27;2.33;;;22.30;47.30;;;20.66;53.54;95923.59;4888867;28;20212;-60
2022/12/06 04:46:24;;;;;;;4.43;1.45;;;22.30;47.50;;;20.66;53.12;95928.94;4871371;28;20387;-60
2022/12/06 04:48:50;;;;;;;4.63;2.20;;;22.30;47.60;;;20.69;53.01;95925.75;4872850;28;20289;-60
2022/12/06 04:51:16;;;;;;;3.13;1.60;;;22.30;47.70;;;20.68;53.81;95926.81;4894420;28;20356;-61
2022/12/06 04:53:42;;;;;;;13.02;3.00;;;22.40;47.70;;;20.70;55.16;95930.03;4892355;28;20281;-60
2022/12/06 04:56:08;;;;;;;20.85;3.88;;;22.30;49.80;;;20.71;57.35;95937.00;4877307;28;20171;-61
2022/12/06 04:58:34;;;;;;;19.27;3.60;;;22.40;51.80;;;20.74;58.84;95927.66;4931667;28;20296;-61
2022/12/06 05:01:00;;;;;;;21.13;4.47;;;22.50;52.60;;;20.76;59.02;95923.66;4893084;28;20348;-61
2022/12/06 05:03:26;;;;;;;17.83;4.30;;;22.50;52.00;;;20.78;58.77;95924.19;4906492;28;20169;-60
2022/12/06 05:05:52;;;;;;;23.73;3.85;;;22.50;52.10;;;20.81;61.40;95928.22;4907061;28;20438;-61
2022/12/06 05:08:18;;;;;;;80.45;11.02;;;22.60;52.00;;;20.85;67.54;95920.50;4890252;28;20320;-61
2022/12/06 05:10:48;;;;;;;34.97;6.57;;;22.60;65.90;;;20.93;69.33;95922.69;4906508;28;20591;-60
2022/12/06 05:13:15;;;;;;;28.17;4.93;;;22.60;60.20;;;20.94;67.33;95924.31;4911356;28;20350;-60
2022/12/06 05:16:01;;;;;;;20.23;3.83;;;22.60;58.00;;;20.95;67.77;95920.56;4873676;28;20481;-60
2022/12/06 05:18:27;;;;;;;17.77;3.33;;;22.60;56.70;;;20.94;64.98;95919.75;4875342;28;20315;-61
2022/12/06 05:21:08;;;;;;;17.30;3.13;;;22.60;54.80;;;20.95;67.46;95920.56;4892288;28;20361;-60
2022/12/06 05:23:34;;;;;;;17.40;2.97;;;22.60;54.90;;;20.93;65.62;95918.16;4876506;28;20335;-61
2022/12/06 05:26:05;;;;;;;15.05;3.40;;;22.60;55.20;;;20.94;66.16;95925.09;4873388;28;20841;-60
2022/12/06 05:28:32;;;;;;;13.95;3.67;;;22.60;54.90;;;20.93;64.34;95920.03;4890707;28;20264;-61
2022/12/06 05:30:58;;;;;;;14.40;3.78;;;22.60;54.30;;;20.91;64.13;95924.81;4874528;28;20368;-61
2022/12/06 05:33:24;;;;;;;14.20;3.30;;;22.60;54.00;;;20.90;64.64;95923.22;4937859;28;20052;-60
2022/12/06 05:35:50;;;;;;;13.27;3.60;;;22.60;54.60;;;20.90;64.14;95925.88;5008181;28;20463;-62
2022/12/06 05:38:15;;;;;;;15.15;4.57;;;22.60;53.50;;;20.88;63.34;95928.00;5001642;28;20029;-61
2022/12/06 05:40:42;;;;;;;11.68;3.53;;;22.60;53.50;;;20.87;63.48;95921.06;4991212;28;20528;-61
2022/12/06 05:43:07;;;;;;;10.60;3.17;;;22.60;54.10;;;20.86;62.53;95922.13;5009721;28;20041;-62
2022/12/06 05:45:33;;;;;;;10.95;3.38;;;22.60;52.70;;;20.83;62.30;95923.44;5026346;28;20179;-63
2022/12/06 05:47:59;;;;;;;10.40;3.17;;;22.60;53.90;;;20.83;62.82;95928.00;4979131;28;20137;-62
2022/12/06 05:50:25;;;;;;;12.30;3.28;;;22.60;54.20;;;20.82;62.93;95918.31;5013063;28;20087;-62
2022/12/06 05:52:57;;;;;;;9.10;2.85;;;22.60;54.20;;;20.82;63.28;95926.34;5028828;28;20112;-63
2022/12/06 05:55:23;;;;;;;8.90;3.08;;;22.60;53.40;;;20.79;62.40;95916.97;5028467;28;20120;-62
2022/12/06 05:57:49;;;;;;;7.55;3.30;;;22.60;54.20;;;20.76;62.65;95912.97;5012272;28;20075;-61
2022/12/06 06:00:16;;;;;;;9.90;3.10;;;22.50;54.40;;;20.75;62.67;95915.88;5046826;28;20966;-62
2022/12/06 06:02:42;;;;;;;6.63;3.10;;;22.50;53.00;;;20.72;61.32;95906.53;5012679;28;20029;-62
2022/12/06 06:05:08;;;;;;;12.88;3.30;;;22.50;52.50;;;20.71;60.80;95912.13;5012819;28;20025;-62
2022/12/06 06:07:33;;;;;;;9.43;3.20;;;22.50;52.30;;;20.71;60.50;95914.78;5029098;28;20059;-62
2022/12/06 06:09:59;;;;;;;10.25;2.90;;;22.50;51.80;;;20.69;60.35;95915.06;5028932;28;20476;-62
2022/12/06 06:12:25;;;;;;;6.72;2.58;;;22.50;51.60;;;20.67;59.49;95914.50;5045857;28;20029;-62
2022/12/06 06:14:52;;;;;;;12.23;3.20;;;22.40;51.10;;;20.66;59.74;95918.25;5045383;28;20126;-62
2022/12/06 06:17:17;;;;;;;11.77;2.50;;;22.40;51.60;;;20.64;59.83;95920.38;5029110;28;20108;-62
2022/12/06 06:19:43;;;;;;;8.50;2.75;;;22.40;51.20;;;20.64;59.45;95925.72;5028391;28;20040;-62
2022/12/06 06:22:09;;;;;;;6.68;3.22;;;22.40;51.00;;;20.62;59.01;95922.50;5045415;28;20456;-62
2022/12/06 06:24:36;;;;;;;8.70;2.60;;;22.40;50.70;;;20.59;58.53;95917.66;5029270;28;20124;-62
2022/12/06 06:27:02;;;;;;;9.73;3.03;;;22.40;50.10;;;20.60;57.95;95924.63;5044947;28;20049;-62
2022/12/06 06:29:28;;;;;;;6.43;2.65;;;22.30;50.10;;;20.56;57.92;95917.34;5028068;28;20163;-61
2022/12/06 06:31:54;;;;;;;5.53;2.40;;;22.30;50.40;;;20.56;58.63;95925.38;4996164;28;20526;-62
2022/12/06 06:34:20;;;;;;;5.53;3.00;;;22.30;50.30;;;20.54;57.30;95925.63;5023172;28;20132;-62
2022/12/06 06:36:45;;;;;;;6.00;3.05;;;22.30;50.70;;;20.53;57.47;95918.69;5026247;28;20057;-62
2022/12/06 06:39:11;;;;;;;6.38;2.20;;;22.30;50.10;;;20.53;57.50;95925.88;5008018;28;20116;-61
2022/12/06 06:41:37;;;;;;;6.03;2.30;;;22.30;50.00;;;20.50;57.25;95919.19;5025353;28;20046;-62
2022/12/06 06:44:03;;;;;;;7.57;3.35;;;22.30;49.60;;;20.49;56.89;95923.72;5025193;28;20073;-61
2022/12/06 06:46:28;;;;;;;6.60;2.92;;;22.30;49.40;;;20.49;57.24;95929.06;5025338;28;20141;-62
2022/12/06 06:48:54;;;;;;;6.85;3.22;;;22.30;49.40;;;20.49;56.80;95923.72;5024122;28;20108;-62
2022/12/06 06:51:20;;;;;;;5.60;2.53;;;22.20;50.00;;;20.46;57.91;95920.75;5008351;28;20061;-62
2022/12/06 06:53:46;;;;;;;4.53;2.10;;;22.20;50.00;;;20.46;57.46;95928.78;5025196;28;20455;-62
2022/12/06 06:56:11;;;;;;;7.15;2.70;;;22.20;49.70;;;20.45;57.05;95927.16;5026250;28;20556;-62
2022/12/06 06:58:37;;;;;;;5.35;2.60;;;22.20;49.10;;;20.44;56.53;95920.22;5008027;28;20037;-63
2022/12/06 07:01:04;;;;;;;4.70;2.70;;;22.20;49.00;;;20.43;55.90;95923.94;5007864;28;20064;-62
2022/12/06 07:03:30;;;;;;;5.78;2.10;;;22.10;48.90;;;20.41;56.88;95924.22;4992084;28;20055;-63
2022/12/06 07:06:22;;;;;;;5.53;2.30;;;22.20;49.00;;;20.43;57.18;95929.28;4992370;28;20025;-62
2022/12/06 07:08:48;;;;;;;4.55;2.35;;;22.10;48.90;;;20.40;56.13;95927.09;4987279;28;20026;-60
2022/12/06 07:11:14;;;;;;;5.63;3.15;;;22.20;48.90;;;20.40;55.90;95929.78;5008143;28;20057;-60
2022/12/06 07:13:41;;;;;;;5.00;2.75;;;22.20;48.70;;;20.38;55.66;95927.38;4992316;28;20132;-62
2022/12/06 07:16:10;;;;;;;3.65;2.30;;;22.10;48.80;;;20.38;55.58;95927.38;4992418;28;20414;-61
2022/12/06 07:18:36;;;;;;;4.22;2.30;;;22.10;48.40;;;20.38;56.22;95923.88;4991685;28;20152;-62
2022/12/06 07:21:06;;;;;;;4.57;2.40;;;22.10;48.50;;;20.38;56.38;95932.72;5007474;28;20635;-62
2022/12/06 07:23:32;;;;;;;4.53;2.25;;;22.10;48.80;;;20.36;56.05;95934.78;4991993;28;20034;-62
2022/12/06 07:26:07;;;;;;;11.32;2.25;;;22.10;48.20;;;20.37;55.58;95931.09;4992142;28;20640;-62
2022/12/06 07:28:37;;;;;;;4.47;1.92;;;22.10;48.40;;;20.37;56.15;95932.97;5024110;28;20029;-62
2022/12/06 07:31:32;;;;;;;6.95;3.55;;;22.10;48.20;;;20.36;56.00;95934.00;5007327;28;20034;-62
2022/12/06 07:33:59;;;;;;;4.18;2.67;;;22.10;48.40;;;20.35;55.40;95932.38;4986912;28;20033;-62
2022/12/06 07:36:27;;;;;;;4.55;2.50;;;22.10;48.10;;;20.35;55.12;95927.03;5008094;28;20036;-60
2022/12/06 07:38:54;;;;;;;4.43;2.15;;;22.10;48.20;;;20.33;55.33;95924.63;5023189;28;20091;-61
2022/12/06 07:46:54;;;;;;;3.55;2.17;;;22.10;48.20;;;20.33;54.33;95929.16;4996462;28;20125;-62
2022/12/06 07:49:19;;;;;;;3.83;2.13;;;22.10;47.90;;;20.33;55.17;95929.16;5007005;28;20029;-63
2022/12/06 07:51:45;;;;;;;3.35;1.98;;;22.10;48.10;;;20.35;54.58;95935.06;5024154;28;20050;-62
2022/12/06 07:54:12;;;;;;;5.15;2.35;;;22.10;47.90;;;20.35;54.64;95924.38;5007680;28;20057;-63
2022/12/06 07:56:38;;;;;;;2.65;1.70;;;22.10;47.90;;;20.36;54.79;95924.13;4976641;28;20026;-65
2022/12/06 07:59:04;;;;;;;4.35;2.08;;;22.10;47.90;;;20.38;54.59;95926.56;5006402;28;20511;-64
2022/12/06 08:01:30;;;;;;;3.83;2.40;;;22.10;47.50;;;20.37;54.25;95920.41;5007720;28;20037;-64
2022/12/06 08:04:00;;;;;;;2.88;2.00;;;22.10;47.60;;;20.36;54.43;95921.44;5023937;28;20095;-64
2022/12/06 08:06:26;;;;;;;4.40;2.63;;;22.10;47.40;;;20.36;54.19;95923.31;5008364;28;20117;-65
2022/12/06 08:08:52;;;;;;;3.50;2.00;;;22.00;47.30;;;20.35;55.16;95916.34;5006347;28;20029;-65
2022/12/06 08:11:19;;;;;;;3.58;2.30;;;22.10;47.40;;;20.35;54.04;95911.00;5007551;28;20026;-66
2022/12/06 08:13:45;;;;;;;5.28;3.13;;;22.10;47.50;;;20.34;53.71;95909.41;5007676;28;20033;-65
2022/12/06 08:16:14;;;;;;;3.20;2.42;;;22.10;47.40;;;20.33;54.00;95918.47;5007372;28;20512;-65
2022/12/06 08:18:40;;;;;;;3.53;1.73;;;22.10;47.40;;;20.33;54.00;95913.13;4990328;28;20065;-65
2022/12/06 08:21:06;;;;;;;2.88;1.70;;;22.10;47.50;;;20.32;54.17;95916.88;5006769;28;20116;-65
2022/12/06 08:23:32;;;;;;;4.22;3.08;;;22.10;47.60;;;20.32;52.94;95922.22;5007851;28;20350;-65
2022/12/06 08:26:02;;;;;;;3.05;2.30;;;22.10;47.60;;;20.31;53.38;95925.94;5023807;28;20113;-65
2022/12/06 08:28:28;;;;;;;3.10;2.08;;;22.10;47.30;;;20.30;54.57;95919.00;5007273;28;20021;-64
2022/12/06 08:30:54;;;;;;;4.15;2.20;;;22.00;47.60;;;20.31;54.08;95923.28;5022821;28;20017;-63
2022/12/06 08:33:20;;;;;;;6.47;3.03;;;22.10;47.40;;;20.29;52.38;95922.72;5007130;28;20141;-64
2022/12/06 08:35:48;;;;;;;4.35;3.05;;;22.00;46.70;;;20.29;52.61;95925.41;5007409;28;20420;-64
2022/12/06 08:38:14;;;;;;;3.10;2.30;;;22.00;47.50;;;20.29;53.08;95930.75;4989962;28;20456;-65
2022/12/06 08:40:39;;;;;;;3.53;2.22;;;22.10;47.50;;;20.28;53.46;95926.47;5006972;28;20029;-63
2022/12/06 08:43:06;;;;;;;3.35;1.92;;;22.10;47.40;;;20.29;53.18;95931.53;5022337;28;21467;-64
2022/12/06 08:45:32;;;;;;;3.58;2.10;;;22.00;47.20;;;20.29;53.15;95938.75;5023599;28;20040;-65
2022/12/06 08:47:58;;;;;;;4.00;2.53;;;22.00;47.20;;;20.29;53.48;95928.06;5006462;28;20029;-64
2022/12/06 08:50:24;;;;;;;3.85;2.22;;;22.00;47.20;;;20.28;52.90;95926.47;5024591;28;20064;-64
2022/12/06 08:52:49;;;;;;;2.92;2.13;;;22.00;47.10;;;20.28;53.47;95926.47;5022877;28;20117;-64
2022/12/06 08:55:15;;;;;;;4.72;2.67;;;22.00;47.30;;;20.28;52.89;95926.47;5006678;28;20057;-65
2022/12/06 08:57:41;;;;;;;2.72;1.75;;;22.00;47.30;;;20.28;52.94;95926.47;5006610;28;20033;-65
2022/12/06 09:00:08;;;;;;;3.40;1.95;;;22.00;47.20;;;20.27;52.60;95922.19;5022916;28;20114;-61
2022/12/06 09:02:34;;;;;;;4.00;2.30;;;22.00;47.10;;;20.28;52.58;95921.91;5007159;28;20113;-65
2022/12/06 09:04:59;;;;;;;2.90;1.98;;;22.00;46.90;;;20.27;52.36;95930.19;5022773;28;20136;-62
2022/12/06 09:07:25;;;;;;;3.95;2.03;;;21.90;47.00;;;20.27;52.58;95924.84;5023506;28;20124;-65
2022/12/06 09:09:54;;;;;;;4.50;2.03;;;22.00;47.00;;;20.27;52.65;95930.19;5022783;28;20112;-65
2022/12/06 09:12:20;;;;;;;2.83;1.95;;;22.00;46.90;;;20.26;53.33;95925.91;5023159;28;20041;-64
2022/12/06 09:14:46;;;;;;;4.03;2.60;;;22.00;46.70;;;20.27;52.82;95924.84;4989949;28;20485;-65
2022/12/06 09:17:11;;;;;;;4.72;2.35;;;22.00;46.80;;;20.27;53.00;95933.66;5023121;28;20068;-65
2022/12/06 09:19:37;;;;;;;4.10;2.90;;;21.90;46.80;;;20.26;51.99;95913.34;5022456;28;20124;-65
2022/12/06 09:22:03;;;;;;;3.25;2.05;;;22.00;47.00;;;20.26;52.69;95917.91;5023320;28;20124;-64
2022/12/06 09:24:29;;;;;;;2.85;2.20;;;22.00;46.80;;;20.27;52.42;95930.19;5007175;28;20037;-64
2022/12/06 09:26:54;;;;;;;3.88;2.30;;;22.00;46.90;;;20.26;52.38;95929.38;5023021;28;20120;-64
2022/12/06 09:29:20;;;;;;;3.40;2.10;;;22.00;46.70;;;20.25;53.38;95930.44;5006133;28;20026;-64
2022/12/06 09:31:46;;;;;;;2.90;2.08;;;22.00;46.70;;;20.26;52.98;95928.56;5009620;28;20515;-63
2022/12/06 09:34:12;;;;;;;2.90;2.00;;;22.00;46.70;;;20.27;52.54;95931.00;5026698;28;20045;-62
2022/12/06 09:37:02;;;;;;;2.10;1.52;;;22.00;46.80;;;20.28;53.59;95926.47;5010527;28;20076;-65
2022/12/06 09:39:41;;;;;;;2.78;1.70;;;22.00;46.60;;;20.26;52.61;95932.06;5009173;28;20120;-64
2022/12/06 09:42:32;;;;;;;3.55;2.00;;;21.90;46.70;;;20.27;53.18;95924.84;4978212;28;20033;-62
2022/12/06 09:45:35;;;;;;;2.83;1.70;;;22.00;46.70;;;20.26;53.27;95923.22;5026238;28;20419;-64
2022/12/06 09:48:40;;;;;;;2.53;1.83;;;21.90;46.60;;;20.26;52.37;95917.91;5007146;28;20442;-65
2022/12/06 09:51:38;;;;;;;3.03;1.98;;;22.00;46.50;;;20.23;52.81;95919.22;5026324;28;20030;-65
2022/12/06 09:54:26;;;;;;;2.60;1.73;;;22.00;46.60;;;20.23;53.09;95908.53;4988662;28;20033;-63
2022/12/06 09:57:07;;;;;;;2.67;1.70;;;22.00;46.60;;;20.23;53.45;95910.38;5010109;28;20083;-65
2022/12/06 10:00:08;;;;;;;3.08;2.28;;;22.00;46.50;;;20.23;52.42;95903.19;4992886;28;20125;-65
2022/12/06 10:03:22;;;;;;;3.65;1.67;;;22.00;46.50;;;20.23;52.95;95897.84;5026695;28;20044;-65
2022/12/06 10:06:04;;;;;;;3.28;2.33;;;22.00;46.30;;;20.22;53.30;95898.09;5009384;28;20030;-65
2022/12/06 10:09:32;;;;;;;3.35;2.00;;;22.00;46.50;;;20.22;53.02;95895.44;5025776;28;20481;-65
2022/12/06 10:12:06;;;;;;;2.65;1.77;;;22.00;46.40;;;20.19;52.57;95884.19;4926960;28;20376;-64
2022/12/06 10:15:11;;;;;;;3.03;1.95;;;21.90;46.50;;;20.22;52.95;95879.41;5027471;28;20489;-64
2022/12/06 10:17:55;;;;;;;3.13;2.15;;;22.00;46.40;;;20.21;52.95;95883.94;5008426;28;20038;-63
2022/12/06 10:20:33;;;;;;;2.65;1.80;;;21.90;46.40;;;20.21;52.74;95875.13;5026952;28;20030;-64
2022/12/06 10:23:18;;;;;;;3.00;2.08;;;22.00;46.50;;;20.22;52.71;95874.88;5009262;28;20025;-63
2022/12/06 10:26:10;;;;;;;3.13;1.60;;;21.90;46.20;;;20.20;52.91;95866.31;5027462;28;20812;-64
2022/12/06 10:28:47;;;;;;;2.13;1.65;;;22.00;46.50;;;20.21;52.83;95873.25;5009956;28;20112;-62
2022/12/06 10:31:29;;;;;;;2.97;1.90;;;21.90;46.20;;;20.22;52.95;95871.41;5026238;28;20155;-65
2022/12/06 10:34:21;;;;;;;2.20;1.55;;;22.00;46.20;;;20.21;53.25;95869.78;4993383;28;20021;-63
2022/12/06 10:37:21;;;;;;;2.30;1.75;;;21.90;46.40;;;20.23;53.01;95865.00;5011116;28;20179;-62
2022/12/06 10:39:54;;;;;;;2.58;1.95;;;21.90;46.30;;;20.21;52.17;95869.78;5024926;28;20033;-62
2022/12/06 10:42:26;;;;;;;2.55;1.85;;;21.90;46.30;;;20.19;52.05;95860.16;4992624;28;20038;-64
2022/12/06 10:48:40;;;;;;;2.30;1.70;;;21.90;46.20;;;20.17;52.09;95859.63;5011169;28;20060;-64
2022/12/06 10:51:17;;;;;;;2.35;1.73;;;21.90;46.00;;;20.19;52.72;95862.03;5024306;28;20037;-63
2022/12/06 10:53:50;;;;;;;2.60;1.58;;;22.00;46.10;;;20.19;52.44;95862.84;4992871;28;20033;-64
2022/12/06 10:56:26;;;;;;;2.88;1.98;;;21.90;46.10;;;20.21;52.18;95859.91;4992776;28;20683;-64
2022/12/06 10:59:18;;;;;;;2.97;1.80;;;22.00;46.20;;;20.22;51.46;95860.72;4991805;28;20488;-63
2022/12/06 11:01:43;;;;;;;3.17;2.35;;;21.90;46.10;;;20.18;50.26;95853.22;5025466;28;20618;-64
2022/12/06 11:04:17;;;;;;;2.78;1.80;;;21.90;45.80;;;20.19;51.61;95852.16;5025077;28;20061;-64
2022/12/06 11:06:48;;;;;;;3.40;2.28;;;21.90;46.00;;;20.19;51.47;95860.16;4992689;28;20582;-63
2022/12/06 11:09:52;;;;;;;2.90;2.10;;;21.90;45.50;;;20.21;51.57;95853.75;4991402;28;20026;-64